Time;durP1;ratioP1;P1;durP2;ratioP2;P2;SDS_P1;SDS_P2;PMS_P1;PMS_P2;Temp;Humidity;BMP_temperature;BMP_pressure;BME280_temperature;BME280_humidity;BME280_pressure;Samples;Min_cycle;Max_cycle;Signal;HPM_P1;HPM_P2
2024/01/21 06:00:20;;;;;;;10.20;8.87;;;;;;;;;;1747362;28;20405;-75
2024/01/21 06:01:11;;;;;;;9.40;8.40;;;;;;;;;;1747679;28;20646;-75
2024/01/21 06:02:03;;;;;;;10.10;9.10;;;;;;;;;;1747773;28;20213;-75
2024/01/21 06:02:55;;;;;;;10.90;9.85;;;;;;;;;;1747650;28;20287;-75
2024/01/21 06:03:46;;;;;;;9.95;8.88;;;;;;;;;;1747639;28;20245;-75
2024/01/21 06:04:37;;;;;;;10.18;9.27;;;;;;;;;;1747598;28;20202;-75
2024/01/21 06:05:29;;;;;;;9.95;9.00;;;;;;;;;;1747777;28;20205;-75
2024/01/21 06:06:20;;;;;;;9.85;8.85;;;;;;;;;;1747662;28;20206;-75
2024/01/21 06:07:11;;;;;;;10.50;9.50;;;;;;;;;;1747786;28;20199;-75
2024/01/21 06:08:03;;;;;;;9.65;8.75;;;;;;;;;;1747665;28;20199;-76
2024/01/21 06:08:54;;;;;;;10.77;9.68;;;;;;;;;;1747695;28;20206;-75
2024/01/21 06:09:46;;;;;;;10.02;9.05;;;;;;;;;;1747707;28;20199;-76
2024/01/21 06:10:38;;;;;;;11.00;9.82;;;;;;;;;;1747279;28;20659;-75
2024/01/21 06:11:29;;;;;;;10.02;9.05;;;;;;;;;;1747685;28;20207;-76
2024/01/21 06:12:20;;;;;;;9.27;8.38;;;;;;;;;;1747631;28;20241;-75
2024/01/21 06:13:12;;;;;;;9.70;8.82;;;;;;;;;;1747308;28;20598;-75
2024/01/21 06:14:03;;;;;;;10.15;9.10;;;;;;;;;;1747314;28;20198;-75
2024/01/21 06:14:55;;;;;;;9.52;8.63;;;;;;;;;;1748733;28;20278;-76
2024/01/21 06:15:48;;;;;;;9.07;8.27;;;;;;;;;;1748977;28;20271;-75
2024/01/21 06:16:39;;;;;;;10.20;9.10;;;;;;;;;;1748875;28;20210;-75
2024/01/21 06:17:30;;;;;;;10.00;9.05;;;;;;;;;;1748900;28;20293;-76
2024/01/21 06:18:22;;;;;;;10.48;9.48;;;;;;;;;;1742073;28;20675;-75
2024/01/21 06:19:13;;;;;;;9.45;8.65;;;;;;;;;;1741914;28;20214;-75
2024/01/21 06:20:05;;;;;;;9.27;8.00;;;;;;;;;;1747336;28;20202;-76
2024/01/21 06:20:57;;;;;;;10.23;9.23;;;;;;;;;;1748899;28;20551;-75
2024/01/21 06:21:48;;;;;;;10.07;9.15;;;;;;;;;;1748791;28;20210;-75
2024/01/21 06:22:40;;;;;;;12.00;10.18;;;;;;;;;;1748863;28;20209;-75
2024/01/21 06:23:31;;;;;;;10.18;9.27;;;;;;;;;;1748610;28;20260;-75
2024/01/21 06:24:23;;;;;;;11.25;10.15;;;;;;;;;;1748927;28;20198;-75
2024/01/21 06:25:15;;;;;;;11.63;10.52;;;;;;;;;;1748884;28;20289;-75
2024/01/21 06:26:16;;;;;;;10.98;9.88;;;;;;;;;;1748941;28;20540;-76
2024/01/21 06:27:07;;;;;;;10.73;9.82;;;;;;;;;;1748838;28;20213;-76
2024/01/21 06:27:58;;;;;;;11.73;10.55;;;;;;;;;;1748815;28;20260;-75
2024/01/21 06:28:50;;;;;;;11.73;10.52;;;;;;;;;;1748936;28;20198;-75
2024/01/21 06:29:43;;;;;;;10.75;9.65;;;;;;;;;;1748757;28;20690;-75
2024/01/21 06:30:34;;;;;;;11.23;10.20;;;;;;;;;;1748293;28;20199;-75
2024/01/21 06:31:28;;;;;;;11.13;10.23;;;;;;;;;;1748912;28;20202;-75
2024/01/21 06:32:19;;;;;;;11.35;10.32;;;;;;;;;;1748794;28;20594;-75
2024/01/21 06:33:10;;;;;;;12.57;11.40;;;;;;;;;;1748804;28;20206;-74
2024/01/21 06:34:02;;;;;;;12.05;10.95;;;;;;;;;;1748701;28;20209;-76
2024/01/21 06:34:53;;;;;;;13.00;11.68;;;;;;;;;;1748844;28;20663;-75
2024/01/21 06:35:45;;;;;;;11.80;10.70;;;;;;;;;;1748858;28;20236;-75
2024/01/21 06:36:37;;;;;;;12.18;11.02;;;;;;;;;;1749160;28;20206;-74
2024/01/21 06:37:29;;;;;;;11.25;10.15;;;;;;;;;;1748764;28;20206;-75
2024/01/21 06:38:20;;;;;;;11.90;10.70;;;;;;;;;;1748711;28;20210;-75
2024/01/21 06:39:12;;;;;;;10.90;9.90;;;;;;;;;;1748783;28;20211;-75
2024/01/21 06:40:04;;;;;;;10.00;9.10;;;;;;;;;;1748561;28;20255;-76
2024/01/21 06:40:55;;;;;;;10.50;9.50;;;;;;;;;;1748321;28;20210;-76
2024/01/21 06:41:47;;;;;;;9.77;8.80;;;;;;;;;;1748851;28;20198;-75
2024/01/21 06:42:38;;;;;;;10.60;9.50;;;;;;;;;;1748537;28;20655;-75
2024/01/21 06:43:30;;;;;;;10.65;9.55;;;;;;;;;;1748716;28;20754;-75
2024/01/21 06:44:22;;;;;;;10.80;9.73;;;;;;;;;;1748367;28;20659;-75
2024/01/21 06:45:13;;;;;;;11.35;10.25;;;;;;;;;;1748369;28;20202;-75
2024/01/21 06:46:04;;;;;;;11.73;10.55;;;;;;;;;;1748758;28;20665;-76
2024/01/21 06:46:57;;;;;;;11.13;10.02;;;;;;;;;;1748704;28;20208;-75
2024/01/21 06:47:48;;;;;;;11.05;9.77;;;;;;;;;;1748795;28;20199;-75
2024/01/21 06:48:40;;;;;;;11.40;10.30;;;;;;;;;;1748661;28;20202;-75
2024/01/21 06:49:31;;;;;;;12.70;11.40;;;;;;;;;;1748851;28;20210;-75
2024/01/21 06:50:22;;;;;;;11.90;10.80;;;;;;;;;;1748498;28;20206;-76
2024/01/21 06:51:31;;;;;;;11.65;10.55;;;;;;;;;;1748772;28;20203;-77
2024/01/21 06:52:23;;;;;;;11.52;10.32;;;;;;;;;;1748842;28;20231;-77
2024/01/21 06:53:15;;;;;;;12.15;11.05;;;;;;;;;;1748703;28;20194;-76
2024/01/21 06:54:07;;;;;;;11.68;10.55;;;;;;;;;;1748741;28;20202;-76
2024/01/21 06:54:58;;;;;;;11.18;10.07;;;;;;;;;;1748951;28;20220;-77
2024/01/21 06:55:50;;;;;;;11.38;10.38;;;;;;;;;;1748591;28;20553;-76
2024/01/21 06:56:43;;;;;;;11.27;10.18;;;;;;;;;;1748899;28;20206;-76
2024/01/21 06:57:35;;;;;;;11.20;10.15;;;;;;;;;;1748770;28;20190;-77
2024/01/21 06:58:26;;;;;;;10.57;9.57;;;;;;;;;;1748784;28;20203;-77
2024/01/21 06:59:18;;;;;;;11.65;10.50;;;;;;;;;;1748672;28;20249;-76
2024/01/21 07:00:11;;;;;;;10.68;9.70;;;;;;;;;;1748446;28;20211;-76
2024/01/21 07:01:02;;;;;;;11.57;10.45;;;;;;;;;;1748708;28;20714;-77
2024/01/21 07:01:54;;;;;;;11.25;10.25;;;;;;;;;;1748730;28;20199;-76
2024/01/21 07:02:47;;;;;;;10.75;9.75;;;;;;;;;;1748958;28;20703;-77
2024/01/21 07:03:38;;;;;;;10.52;9.43;;;;;;;;;;1748659;28;20714;-77
2024/01/21 07:04:30;;;;;;;10.43;9.52;;;;;;;;;;1748799;28;20198;-77
2024/01/21 07:05:21;;;;;;;10.45;9.45;;;;;;;;;;1748953;28;20206;-76
2024/01/21 07:06:13;;;;;;;11.35;10.35;;;;;;;;;;1748959;28;20230;-76
2024/01/21 07:07:05;;;;;;;11.18;10.13;;;;;;;;;;1748829;28;20202;-77
2024/01/21 07:07:56;;;;;;;11.10;10.00;;;;;;;;;;1748873;28;20667;-77
2024/01/21 07:08:47;;;;;;;10.15;9.25;;;;;;;;;;1748758;28;20260;-76
2024/01/21 07:09:41;;;;;;;10.23;9.30;;;;;;;;;;1748851;28;20210;-76
2024/01/21 07:10:32;;;;;;;9.93;9.05;;;;;;;;;;1748131;28;20198;-77
2024/01/21 07:11:25;;;;;;;10.05;9.05;;;;;;;;;;1748504;28;20244;-76
2024/01/21 07:12:17;;;;;;;9.93;9.02;;;;;;;;;;1748572;28;20698;-77
2024/01/21 07:13:08;;;;;;;11.38;10.27;;;;;;;;;;1748670;28;20199;-77
2024/01/21 07:14:00;;;;;;;10.88;9.77;;;;;;;;;;1748658;28;20663;-77
2024/01/21 07:14:51;;;;;;;10.13;9.13;;;;;;;;;;1748686;28;20221;-77
2024/01/21 07:15:43;;;;;;;10.10;9.10;;;;;;;;;;1748697;28;20230;-77
2024/01/21 07:16:34;;;;;;;10.75;9.75;;;;;;;;;;1748850;28;20202;-76
2024/01/21 07:17:26;;;;;;;10.35;9.35;;;;;;;;;;1748719;28;20195;-76
2024/01/21 07:18:19;;;;;;;11.10;10.00;;;;;;;;;;1748753;28;20197;-77
2024/01/21 07:19:11;;;;;;;12.13;10.93;;;;;;;;;;1748628;28;20289;-77
2024/01/21 07:20:03;;;;;;;10.95;9.95;;;;;;;;;;1748354;28;20282;-77
2024/01/21 07:20:54;;;;;;;12.50;11.30;;;;;;;;;;1748426;28;20210;-76
2024/01/21 07:21:46;;;;;;;15.35;12.07;;;;;;;;;;1748692;28;20202;-76
2024/01/21 07:22:37;;;;;;;18.67;16.77;;;;;;;;;;1748526;28;20281;-77
2024/01/21 07:23:28;;;;;;;24.05;21.45;;;;;;;;;;1748519;28;20194;-76
2024/01/21 07:24:20;;;;;;;23.17;20.35;;;;;;;;;;1748576;28;20194;-76
2024/01/21 07:25:14;;;;;;;28.80;25.65;;;;;;;;;;1748662;28;20209;-76
2024/01/21 07:26:05;;;;;;;19.48;17.30;;;;;;;;;;1747879;28;20207;-76
2024/01/21 07:26:57;;;;;;;17.33;15.63;;;;;;;;;;1741613;28;20298;-77
2024/01/21 07:27:48;;;;;;;16.98;15.20;;;;;;;;;;1747386;28;20199;-76
2024/01/21 07:28:39;;;;;;;14.15;12.70;;;;;;;;;;1748431;28;20206;-76
2024/01/21 07:29:31;;;;;;;13.35;11.60;;;;;;;;;;1748288;28;20277;-77
2024/01/21 07:30:22;;;;;;;12.07;10.98;;;;;;;;;;1748300;28;20743;-76
2024/01/21 07:31:15;;;;;;;10.20;9.20;;;;;;;;;;1748487;28;20210;-76
2024/01/21 07:32:06;;;;;;;9.50;8.60;;;;;;;;;;1748356;28;20247;-75
2024/01/21 07:32:57;;;;;;;9.63;8.63;;;;;;;;;;1748492;28;20603;-76
2024/01/21 07:33:50;;;;;;;10.20;9.10;;;;;;;;;;1748468;28;20241;-76
2024/01/21 07:34:42;;;;;;;10.57;9.57;;;;;;;;;;1748515;28;20251;-76
2024/01/21 07:35:34;;;;;;;9.77;8.77;;;;;;;;;;1748556;28;20206;-76
2024/01/21 07:36:25;;;;;;;10.05;9.05;;;;;;;;;;1748339;28;20230;-76
2024/01/21 07:37:17;;;;;;;9.65;8.75;;;;;;;;;;1748427;28;20198;-76
2024/01/21 07:38:09;;;;;;;8.98;8.18;;;;;;;;;;1748467;28;20209;-76
2024/01/21 07:39:00;;;;;;;9.73;8.75;;;;;;;;;;1748421;28;20663;-76
2024/01/21 07:39:52;;;;;;;11.45;10.07;;;;;;;;;;1748417;28;20478;-76
2024/01/21 07:40:45;;;;;;;10.93;9.88;;;;;;;;;;1748114;28;20199;-75
2024/01/21 07:41:37;;;;;;;10.00;9.10;;;;;;;;;;1748382;28;20667;-76
2024/01/21 07:42:28;;;;;;;10.32;9.32;;;;;;;;;;1748595;28;20195;-76
2024/01/21 07:43:19;;;;;;;9.95;9.15;;;;;;;;;;1748334;28;20795;-76
2024/01/21 07:44:11;;;;;;;10.02;9.10;;;;;;;;;;1748343;28;20228;-76
2024/01/21 07:45:02;;;;;;;10.65;9.48;;;;;;;;;;1747917;28;20194;-76
2024/01/21 07:45:53;;;;;;;9.93;8.93;;;;;;;;;;1748201;28;20626;-75
2024/01/21 07:46:46;;;;;;;10.77;9.20;;;;;;;;;;1748401;28;20199;-76
2024/01/21 07:47:37;;;;;;;8.73;7.90;;;;;;;;;;1748247;28;20211;-76
2024/01/21 07:48:29;;;;;;;10.45;9.35;;;;;;;;;;1748417;28;20198;-76
2024/01/21 07:49:21;;;;;;;9.55;8.63;;;;;;;;;;1748348;28;20207;-76
2024/01/21 07:50:12;;;;;;;9.02;8.23;;;;;;;;;;1747947;28;20666;-76
2024/01/21 07:51:04;;;;;;;9.35;8.40;;;;;;;;;;1748332;28;20251;-75
2024/01/21 07:51:55;;;;;;;9.68;8.77;;;;;;;;;;1748220;28;20213;-75
2024/01/21 07:52:46;;;;;;;9.52;8.60;;;;;;;;;;1748195;28;20690;-75
2024/01/21 07:53:38;;;;;;;10.77;9.68;;;;;;;;;;1748216;28;20222;-74
2024/01/21 07:54:29;;;;;;;10.13;9.13;;;;;;;;;;1748344;28;20210;-74
2024/01/21 07:55:20;;;;;;;9.95;9.05;;;;;;;;;;1748224;28;20215;-74
2024/01/21 07:56:13;;;;;;;11.35;10.15;;;;;;;;;;1748344;28;20654;-74
2024/01/21 07:57:05;;;;;;;10.07;9.02;;;;;;;;;;1748242;28;20222;-74
2024/01/21 07:57:56;;;;;;;10.85;9.90;;;;;;;;;;1748267;28;20216;-74
2024/01/21 07:58:48;;;;;;;11.45;10.30;;;;;;;;;;1748177;28;20194;-74
2024/01/21 07:59:39;;;;;;;11.30;10.20;;;;;;;;;;1747958;28;20217;-75
2024/01/21 08:00:30;;;;;;;12.25;11.15;;;;;;;;;;1747906;28;20613;-74
2024/01/21 08:01:24;;;;;;;10.55;9.55;;;;;;;;;;1748200;28;20198;-77
2024/01/21 08:02:15;;;;;;;11.93;9.65;;;;;;;;;;1748163;28;20202;-75
2024/01/21 08:03:06;;;;;;;11.32;10.10;;;;;;;;;;1748186;28;20209;-75
2024/01/21 08:03:58;;;;;;;10.80;9.80;;;;;;;;;;1748302;28;20246;-78
2024/01/21 08:04:50;;;;;;;10.00;9.10;;;;;;;;;;1749383;28;20214;-78
2024/01/21 08:05:41;;;;;;;10.10;9.20;;;;;;;;;;1749901;28;20202;-79
2024/01/21 08:06:33;;;;;;;10.82;9.73;;;;;;;;;;1749478;28;20214;-79
2024/01/21 08:07:26;;;;;;;10.40;9.40;;;;;;;;;;1750703;28;20203;-79
2024/01/21 08:08:18;;;;;;;10.43;9.43;;;;;;;;;;1748309;28;20194;-77
2024/01/21 08:09:09;;;;;;;9.27;8.45;;;;;;;;;;1748887;28;20203;-78
2024/01/21 08:10:01;;;;;;;9.40;8.50;;;;;;;;;;1748668;28;20209;-77
2024/01/21 08:10:53;;;;;;;10.30;9.30;;;;;;;;;;1748966;28;20193;-77
2024/01/21 08:11:44;;;;;;;10.40;9.50;;;;;;;;;;1749406;28;20225;-78
2024/01/21 08:12:35;;;;;;;10.02;9.02;;;;;;;;;;1749284;28;20226;-79
2024/01/21 08:13:28;;;;;;;11.13;10.00;;;;;;;;;;1749486;28;20320;-78
2024/01/21 08:14:19;;;;;;;10.80;9.70;;;;;;;;;;1749695;28;20210;-78
2024/01/21 08:15:11;;;;;;;11.27;10.20;;;;;;;;;;1749470;28;20292;-78
2024/01/21 08:16:02;;;;;;;10.43;9.35;;;;;;;;;;1746128;28;20209;-78
2024/01/21 08:16:54;;;;;;;11.05;9.93;;;;;;;;;;1745129;28;20562;-78
2024/01/21 08:17:46;;;;;;;11.32;10.23;;;;;;;;;;1748778;28;20224;-78
2024/01/21 08:18:37;;;;;;;10.70;9.70;;;;;;;;;;1746571;28;20206;-79
2024/01/21 08:19:29;;;;;;;11.50;10.15;;;;;;;;;;1746456;28;20282;-77
2024/01/21 08:20:21;;;;;;;10.50;9.40;;;;;;;;;;1746097;28;20203;-77
2024/01/21 08:21:13;;;;;;;11.25;10.15;;;;;;;;;;1746536;28;20203;-78
2024/01/21 08:22:04;;;;;;;11.55;10.38;;;;;;;;;;1745985;28;20214;-78
2024/01/21 08:22:56;;;;;;;10.95;9.88;;;;;;;;;;1742405;28;20199;-78
2024/01/21 08:23:48;;;;;;;11.77;10.77;;;;;;;;;;1760267;22;20283;-76
2024/01/21 08:24:39;;;;;;;10.73;9.82;;;;;;;;;;1733619;28;20215;-74
2024/01/21 08:25:30;;;;;;;11.00;9.85;;;;;;;;;;1734368;28;20204;-73
2024/01/21 08:26:22;;;;;;;11.15;10.10;;;;;;;;;;1734264;28;20203;-73
2024/01/21 08:27:13;;;;;;;10.65;9.65;;;;;;;;;;1734301;28;20208;-73
2024/01/21 08:28:05;;;;;;;10.43;9.43;;;;;;;;;;1733955;28;20199;-73
2024/01/21 08:28:58;;;;;;;10.95;9.95;;;;;;;;;;1734368;28;20911;-74
2024/01/21 08:29:49;;;;;;;10.57;9.57;;;;;;;;;;1727523;28;20205;-74
2024/01/21 08:30:40;;;;;;;11.15;10.15;;;;;;;;;;1726726;28;20628;-73
2024/01/21 08:31:32;;;;;;;10.55;9.50;;;;;;;;;;1738119;28;20231;-74
2024/01/21 08:32:23;;;;;;;11.60;10.48;;;;;;;;;;1741061;28;20207;-73
2024/01/21 08:33:15;;;;;;;11.30;9.77;;;;;;;;;;1737327;28;20348;-74
2024/01/21 08:34:06;;;;;;;11.05;10.07;;;;;;;;;;1734181;28;20250;-74
2024/01/21 08:34:57;;;;;;;11.02;9.95;;;;;;;;;;1735351;28;20319;-74
2024/01/21 08:35:50;;;;;;;11.23;10.23;;;;;;;;;;1734090;28;20297;-74
2024/01/21 08:36:41;;;;;;;11.68;10.57;;;;;;;;;;1734166;28;20208;-74
2024/01/21 08:37:33;;;;;;;11.02;10.10;;;;;;;;;;1734074;28;20258;-74
2024/01/21 08:38:25;;;;;;;11.30;10.20;;;;;;;;;;1734274;28;20211;-74
2024/01/21 08:39:17;;;;;;;11.30;10.30;;;;;;;;;;1734228;28;20207;-74
2024/01/21 08:40:08;;;;;;;11.90;10.70;;;;;;;;;;1733741;28;20192;-74
2024/01/21 08:41:00;;;;;;;11.95;10.77;;;;;;;;;;1733460;28;20234;-72
2024/01/21 08:41:51;;;;;;;10.88;9.77;;;;;;;;;;1730737;28;20195;-72
2024/01/21 08:42:44;;;;;;;11.07;9.98;;;;;;;;;;1734205;28;20257;-72
2024/01/21 08:43:35;;;;;;;11.48;10.30;;;;;;;;;;1734086;28;20215;-73
2024/01/21 08:44:26;;;;;;;10.93;10.02;;;;;;;;;;1734166;28;20204;-73
2024/01/21 08:45:19;;;;;;;11.93;10.73;;;;;;;;;;1734252;28;20574;-72
2024/01/21 08:46:11;;;;;;;11.55;10.35;;;;;;;;;;1734101;28;20581;-73
2024/01/21 08:47:02;;;;;;;13.55;12.15;;;;;;;;;;1734123;28;20684;-72
2024/01/21 08:47:54;;;;;;;11.65;10.50;;;;;;;;;;1734283;28;20208;-72
2024/01/21 08:48:45;;;;;;;12.10;11.00;;;;;;;;;;1734194;28;20215;-72
2024/01/21 08:49:37;;;;;;;11.60;10.45;;;;;;;;;;1734226;28;20196;-72
2024/01/21 08:50:29;;;;;;;11.18;10.15;;;;;;;;;;1733769;28;20203;-73
2024/01/21 08:51:21;;;;;;;10.73;9.73;;;;;;;;;;1734238;28;20207;-73
2024/01/21 08:52:12;;;;;;;10.95;9.88;;;;;;;;;;1734154;28;20218;-72
2024/01/21 08:53:04;;;;;;;10.40;9.38;;;;;;;;;;1734072;28;20310;-73
2024/01/21 08:53:56;;;;;;;12.10;10.90;;;;;;;;;;1734068;28;20591;-73
2024/01/21 08:54:47;;;;;;;12.00;10.80;;;;;;;;;;1732414;28;20200;-73
2024/01/21 08:55:39;;;;;;;11.65;10.55;;;;;;;;;;1732764;28;20223;-73
2024/01/21 08:56:32;;;;;;;11.40;9.63;;;;;;;;;;1734237;28;20210;-73
2024/01/21 08:57:24;;;;;;;11.07;9.77;;;;;;;;;;1733906;28;20657;-76
2024/01/21 08:58:15;;;;;;;10.02;9.07;;;;;;;;;;1733844;28;20587;-74
2024/01/21 08:59:06;;;;;;;11.55;10.35;;;;;;;;;;1734040;28;20250;-73
2024/01/21 08:59:58;;;;;;;10.90;9.82;;;;;;;;;;1732715;28;20315;-73
2024/01/21 09:00:49;;;;;;;10.48;9.48;;;;;;;;;;1732487;28;20199;-73
2024/01/21 09:01:40;;;;;;;10.85;9.55;;;;;;;;;;1734041;28;20203;-73
2024/01/21 09:02:32;;;;;;;10.98;9.88;;;;;;;;;;1734217;28;20203;-73
2024/01/21 09:03:23;;;;;;;13.27;11.25;;;;;;;;;;1734112;28;20214;-73
2024/01/21 09:04:15;;;;;;;10.75;9.75;;;;;;;;;;1734121;28;20938;-74
2024/01/21 09:05:07;;;;;;;12.93;11.63;;;;;;;;;;1734124;28;20242;-73
2024/01/21 09:05:58;;;;;;;12.80;11.50;;;;;;;;;;1734101;28;20215;-73
2024/01/21 09:06:51;;;;;;;13.32;12.02;;;;;;;;;;1734165;28;20199;-74
2024/01/21 09:07:42;;;;;;;12.50;11.20;;;;;;;;;;1733946;28;20212;-73
2024/01/21 09:08:34;;;;;;;13.68;11.95;;;;;;;;;;1733147;28;20231;-73
2024/01/21 09:09:26;;;;;;;14.20;12.70;;;;;;;;;;1731668;28;20196;-74
2024/01/21 09:10:17;;;;;;;14.73;13.23;;;;;;;;;;1729844;28;20653;-73
2024/01/21 09:11:08;;;;;;;22.70;19.15;;;;;;;;;;1731235;28;20191;-74
2024/01/21 09:12:00;;;;;;;21.23;19.02;;;;;;;;;;1733260;28;20203;-74
2024/01/21 09:12:51;;;;;;;19.77;17.67;;;;;;;;;;1731201;28;20636;-73
2024/01/21 09:13:43;;;;;;;18.27;16.38;;;;;;;;;;1730586;28;20541;-73
2024/01/21 09:14:35;;;;;;;14.82;13.32;;;;;;;;;;1733990;28;20215;-75
2024/01/21 09:15:26;;;;;;;14.80;13.30;;;;;;;;;;1733942;28;20586;-75
2024/01/21 09:16:19;;;;;;;17.02;15.27;;;;;;;;;;1734084;28;20192;-75
2024/01/21 09:17:10;;;;;;;28.92;21.48;;;;;;;;;;1734012;28;20220;-73
2024/01/21 09:18:01;;;;;;;33.75;24.38;;;;;;;;;;1733908;28;20272;-73
2024/01/21 09:18:53;;;;;;;38.13;27.92;;;;;;;;;;1734010;28;20623;-73
2024/01/21 09:19:44;;;;;;;26.73;21.00;;;;;;;;;;1734063;28;20204;-73
2024/01/21 09:20:35;;;;;;;21.10;17.27;;;;;;;;;;1733675;28;20576;-73
2024/01/21 09:21:27;;;;;;;16.60;14.60;;;;;;;;;;1733959;28;20282;-73
2024/01/21 09:22:20;;;;;;;14.95;13.35;;;;;;;;;;1729366;28;20205;-73
2024/01/21 09:23:12;;;;;;;12.32;11.07;;;;;;;;;;1734076;28;20204;-73
2024/01/21 09:24:04;;;;;;;11.85;10.70;;;;;;;;;;1733487;28;20218;-73
2024/01/21 09:24:56;;;;;;;12.20;10.90;;;;;;;;;;1734051;28;20207;-72
2024/01/21 09:25:47;;;;;;;13.18;11.13;;;;;;;;;;1733925;28;20222;-73
2024/01/21 09:26:39;;;;;;;16.73;13.70;;;;;;;;;;1733782;28;20668;-74
2024/01/21 09:27:30;;;;;;;23.75;17.63;;;;;;;;;;1734033;28;20223;-74
2024/01/21 09:28:23;;;;;;;25.38;19.05;;;;;;;;;;1734050;28;20203;-73
2024/01/21 09:29:15;;;;;;;27.40;19.35;;;;;;;;;;1734080;28;20230;-75
2024/01/21 09:30:07;;;;;;;25.52;18.63;;;;;;;;;;1733597;28;20199;-73
2024/01/21 09:30:58;;;;;;;25.65;18.90;;;;;;;;;;1734044;28;20283;-73
2024/01/21 09:31:55;;;;;;;22.38;17.90;;;;;;;;;;1734161;28;20233;-74
2024/01/21 09:32:46;;;;;;;26.15;20.38;;;;;;;;;;1729447;28;20246;-74
2024/01/21 09:33:37;;;;;;;26.42;21.15;;;;;;;;;;1729926;28;20578;-74
2024/01/21 09:34:29;;;;;;;28.63;23.17;;;;;;;;;;1733076;28;20196;-74
2024/01/21 09:35:20;;;;;;;23.60;20.50;;;;;;;;;;1734022;28;20199;-73
2024/01/21 09:36:11;;;;;;;18.55;16.63;;;;;;;;;;1733973;28;20199;-73
2024/01/21 09:37:03;;;;;;;18.60;15.85;;;;;;;;;;1733947;28;20199;-74
2024/01/21 09:37:56;;;;;;;18.02;16.08;;;;;;;;;;1733897;28;20210;-73
2024/01/21 09:38:47;;;;;;;17.70;15.30;;;;;;;;;;1734072;28;20204;-74
2024/01/21 09:39:39;;;;;;;19.88;17.77;;;;;;;;;;1733906;28;20298;-73
2024/01/21 09:40:30;;;;;;;17.73;15.82;;;;;;;;;;1733368;28;20211;-74
2024/01/21 09:41:26;;;;;;;17.00;13.90;;;;;;;;;;1733962;28;20210;-73
2024/01/21 09:42:18;;;;;;;17.15;14.70;;;;;;;;;;1727254;28;20203;-73
2024/01/21 09:43:11;;;;;;;14.75;13.02;;;;;;;;;;1727192;28;20200;-74
2024/01/21 09:44:03;;;;;;;14.13;12.77;;;;;;;;;;1733396;28;20242;-76
2024/01/21 09:44:55;;;;;;;14.35;12.52;;;;;;;;;;1734014;28;20247;-73
2024/01/21 09:45:47;;;;;;;13.57;11.57;;;;;;;;;;1733944;28;20231;-73
2024/01/21 09:46:38;;;;;;;12.85;11.70;;;;;;;;;;1734035;28;20200;-73
2024/01/21 09:47:30;;;;;;;13.15;11.85;;;;;;;;;;1733968;28;20274;-73
2024/01/21 09:48:21;;;;;;;12.38;10.93;;;;;;;;;;1733944;28;20208;-73
2024/01/21 09:49:13;;;;;;;11.65;10.45;;;;;;;;;;1734310;28;20602;-73
2024/01/21 09:50:06;;;;;;;12.45;11.25;;;;;;;;;;1734779;28;20192;-74
2024/01/21 09:50:58;;;;;;;12.43;11.23;;;;;;;;;;1735335;28;20208;-73
2024/01/21 09:51:49;;;;;;;11.63;10.52;;;;;;;;;;1735452;28;20207;-74
2024/01/21 09:52:41;;;;;;;10.68;9.55;;;;;;;;;;1735306;28;20200;-73
2024/01/21 09:53:34;;;;;;;10.40;9.40;;;;;;;;;;1735159;28;20230;-72
2024/01/21 09:54:26;;;;;;;11.15;10.05;;;;;;;;;;1735324;28;20211;-72
2024/01/21 09:55:17;;;;;;;11.32;10.30;;;;;;;;;;1735282;28;20204;-73
2024/01/21 09:56:08;;;;;;;10.88;9.88;;;;;;;;;;1735303;28;20196;-72
2024/01/21 09:57:00;;;;;;;10.73;9.68;;;;;;;;;;1735267;28;20239;-72
2024/01/21 09:57:52;;;;;;;11.38;10.27;;;;;;;;;;1735442;28;20200;-72
2024/01/21 09:58:46;;;;;;;10.77;9.77;;;;;;;;;;1735210;28;20816;-72
2024/01/21 09:59:39;;;;;;;12.27;10.68;;;;;;;;;;1735238;28;20219;-72
2024/01/21 10:00:30;;;;;;;10.80;9.77;;;;;;;;;;1734810;28;20211;-72
2024/01/21 10:01:22;;;;;;;11.27;9.93;;;;;;;;;;1735227;28;20290;-72
2024/01/21 10:02:16;;;;;;;12.57;10.25;;;;;;;;;;1735240;28;20191;-73
2024/01/21 10:03:07;;;;;;;11.02;9.88;;;;;;;;;;1735254;28;20204;-71
2024/01/21 10:03:58;;;;;;;41.25;25.02;;;;;;;;;;1734914;28;20736;-74
2024/01/21 10:04:51;;;;;;;17.92;14.90;;;;;;;;;;1735235;28;20576;-73
2024/01/21 10:05:42;;;;;;;12.77;11.52;;;;;;;;;;1735256;28;20241;-73
2024/01/21 10:06:34;;;;;;;11.82;10.20;;;;;;;;;;1735088;28;20200;-73
2024/01/21 10:07:26;;;;;;;9.95;8.95;;;;;;;;;;1735221;28;20231;-73
2024/01/21 10:08:17;;;;;;;11.75;10.45;;;;;;;;;;1735177;28;20211;-73
2024/01/21 10:09:16;;;;;;;10.80;9.70;;;;;;;;;;1735216;28;20291;-73
2024/01/21 10:10:07;;;;;;;11.57;10.30;;;;;;;;;;1734858;28;20211;-73
2024/01/21 10:11:02;;;;;;;11.18;10.07;;;;;;;;;;1735297;28;20192;-73
2024/01/21 10:11:56;;;;;;;12.07;10.77;;;;;;;;;;1735284;28;20198;-73
2024/01/21 10:12:47;;;;;;;11.20;10.15;;;;;;;;;;1735250;28;20204;-73
2024/01/21 10:13:38;;;;;;;40.00;13.00;;;;;;;;;;1734980;28;20289;-73
2024/01/21 10:14:31;;;;;;;29.08;12.00;;;;;;;;;;1735185;28;20204;-73
2024/01/21 10:15:22;;;;;;;20.38;12.38;;;;;;;;;;1735173;28;20215;-74
2024/01/21 10:16:14;;;;;;;18.17;10.68;;;;;;;;;;1735189;28;20455;-74
2024/01/21 10:17:06;;;;;;;11.75;10.32;;;;;;;;;;1735162;28;20196;-73
2024/01/21 10:17:57;;;;;;;13.20;10.13;;;;;;;;;;1735096;28;20203;-73
2024/01/21 10:18:49;;;;;;;11.43;8.95;;;;;;;;;;1735264;28;20200;-72
2024/01/21 10:19:41;;;;;;;10.40;9.30;;;;;;;;;;1735108;28;20223;-73
2024/01/21 10:20:33;;;;;;;10.35;9.23;;;;;;;;;;1734814;28;20196;-72
2024/01/21 10:21:25;;;;;;;10.85;9.70;;;;;;;;;;1734779;28;20595;-72
2024/01/21 10:22:18;;;;;;;9.95;8.93;;;;;;;;;;1735194;28;20207;-74
2024/01/21 10:23:10;;;;;;;10.30;9.40;;;;;;;;;;1733262;28;20200;-75
2024/01/21 10:24:02;;;;;;;10.68;9.32;;;;;;;;;;1730016;28;20216;-73
2024/01/21 10:24:56;;;;;;;11.95;10.75;;;;;;;;;;1730656;28;20258;-72
2024/01/21 10:25:48;;;;;;;12.50;11.00;;;;;;;;;;1734624;28;20212;-73
2024/01/21 10:26:42;;;;;;;10.98;9.65;;;;;;;;;;1735052;28;20345;-73
2024/01/21 10:27:33;;;;;;;12.25;10.40;;;;;;;;;;1734952;28;20667;-72
2024/01/21 10:28:26;;;;;;;11.68;10.48;;;;;;;;;;1730559;28;20232;-73
2024/01/21 10:29:17;;;;;;;11.27;10.18;;;;;;;;;;1735041;28;20669;-73
2024/01/21 10:30:09;;;;;;;12.63;11.32;;;;;;;;;;1733841;28;20677;-72
2024/01/21 10:31:01;;;;;;;11.73;10.63;;;;;;;;;;1735016;28;20242;-73
2024/01/21 10:31:52;;;;;;;11.95;10.35;;;;;;;;;;1735080;28;20679;-73
2024/01/21 10:32:44;;;;;;;12.32;10.70;;;;;;;;;;1735012;28;20665;-73
2024/01/21 10:33:36;;;;;;;12.20;11.00;;;;;;;;;;1734866;28;20254;-73
2024/01/21 10:34:27;;;;;;;11.88;10.55;;;;;;;;;;1734866;28;20207;-73
2024/01/21 10:35:18;;;;;;;12.60;11.32;;;;;;;;;;1734649;28;20275;-73
2024/01/21 10:36:12;;;;;;;13.82;10.65;;;;;;;;;;1734635;28;20195;-73
2024/01/21 10:37:04;;;;;;;11.55;10.35;;;;;;;;;;1735016;28;20265;-73
2024/01/21 10:37:56;;;;;;;10.55;9.55;;;;;;;;;;1734993;28;20245;-73
2024/01/21 10:38:49;;;;;;;11.98;10.20;;;;;;;;;;1735093;28;20199;-73
2024/01/21 10:39:43;;;;;;;10.30;9.23;;;;;;;;;;1734920;28;20283;-73
2024/01/21 10:40:43;;;;;;;12.50;10.48;;;;;;;;;;1734249;28;20574;-73
2024/01/21 10:41:35;;;;;;;10.55;9.02;;;;;;;;;;1735024;28;20899;-76
2024/01/21 10:42:26;;;;;;;11.63;9.93;;;;;;;;;;1734948;28;20200;-75
2024/01/21 10:43:19;;;;;;;11.30;10.20;;;;;;;;;;1734937;28;20199;-74
2024/01/21 10:44:10;;;;;;;11.70;10.50;;;;;;;;;;1734885;28;20255;-73
2024/01/21 10:45:02;;;;;;;11.18;10.00;;;;;;;;;;1731475;28;20200;-74
2024/01/21 10:45:54;;;;;;;12.00;10.15;;;;;;;;;;1728131;28;20677;-73
2024/01/21 10:46:46;;;;;;;9.65;8.65;;;;;;;;;;1732407;28;20216;-73
2024/01/21 10:47:41;;;;;;;10.40;9.30;;;;;;;;;;1734858;28;20295;-73
2024/01/21 10:48:33;;;;;;;10.38;9.25;;;;;;;;;;1734652;28;20212;-73
2024/01/21 10:49:24;;;;;;;10.82;9.70;;;;;;;;;;1734686;28;20208;-74
2024/01/21 10:50:17;;;;;;;10.43;9.43;;;;;;;;;;1733584;28;20214;-73
2024/01/21 10:51:09;;;;;;;10.50;9.40;;;;;;;;;;1728014;28;20196;-73
2024/01/21 10:52:01;;;;;;;11.02;9.77;;;;;;;;;;1732199;28;20568;-73
2024/01/21 10:52:53;;;;;;;10.02;9.02;;;;;;;;;;1735060;28;20754;-73
2024/01/21 10:53:44;;;;;;;10.48;9.45;;;;;;;;;;1734578;28;20372;-73
2024/01/21 10:54:38;;;;;;;11.43;10.32;;;;;;;;;;1727917;28;20208;-73
2024/01/21 10:55:29;;;;;;;10.32;9.10;;;;;;;;;;1727627;28;20265;-73
2024/01/21 10:56:23;;;;;;;10.05;9.05;;;;;;;;;;1732920;28;20614;-73
2024/01/21 10:57:15;;;;;;;9.65;8.65;;;;;;;;;;1734918;28;20549;-73
2024/01/21 10:58:07;;;;;;;10.07;9.07;;;;;;;;;;1734766;28;20211;-73
2024/01/21 10:58:58;;;;;;;9.70;8.68;;;;;;;;;;1734932;28;20720;-73
2024/01/21 10:59:50;;;;;;;10.63;9.50;;;;;;;;;;1734716;28;20214;-73
2024/01/21 11:00:42;;;;;;;9.75;8.85;;;;;;;;;;1733844;28;20244;-73
2024/01/21 11:01:33;;;;;;;9.50;8.50;;;;;;;;;;1734673;28;20219;-73
2024/01/21 11:02:28;;;;;;;9.25;8.35;;;;;;;;;;1734768;28;20215;-73
2024/01/21 11:03:23;;;;;;;9.25;8.32;;;;;;;;;;1734918;28;20206;-73
2024/01/21 11:04:16;;;;;;;40.58;36.63;;;;;;;;;;1727878;28;20267;-73